sensor_id;sensor_type;location;lat;lon;timestamp;pressure;altitude;pressure_sealevel;temperature;humidity
76132;BME280;64877;50.994;13.650;2023-07-20T00:01:28;99156.19;;;19.80;90.16
76132;BME280;64877;50.994;13.650;2023-07-20T00:03:54;99155.63;;;19.70;91.57
76132;BME280;64877;50.994;13.650;2023-07-20T00:06:22;99151.75;;;19.64;92.40
76132;BME280;64877;50.994;13.650;2023-07-20T00:08:49;99152.78;;;19.63;90.69
76132;BME280;64877;50.994;13.650;2023-07-20T00:11:14;99158.34;;;19.55;92.97
76132;BME280;64877;50.994;13.650;2023-07-20T00:13:40;99146.16;;;19.57;92.24
76132;BME280;64877;50.994;13.650;2023-07-20T00:16:06;99147.75;;;19.52;92.35
76132;BME280;64877;50.994;13.650;2023-07-20T00:18:31;99148.22;;;19.26;94.74
76132;BME280;64877;50.994;13.650;2023-07-20T00:20:57;99149.56;;;19.30;94.00
76132;BME280;64877;50.994;13.650;2023-07-20T00:23:22;99161.91;;;19.11;94.06
76132;BME280;64877;50.994;13.650;2023-07-20T00:25:48;99161.16;;;19.17;95.05
76132;BME280;64877;50.994;13.650;2023-07-20T00:28:14;99157.19;;;19.05;96.20
76132;BME280;64877;50.994;13.650;2023-07-20T00:30:40;99156.59;;;18.95;98.23
76132;BME280;64877;50.994;13.650;2023-07-20T00:33:09;99158.78;;;19.29;93.75
76132;BME280;64877;50.994;13.650;2023-07-20T00:35:35;99156.53;;;19.32;92.52
76132;BME280;64877;50.994;13.650;2023-07-20T00:38:01;99160.38;;;19.23;91.92
76132;BME280;64877;50.994;13.650;2023-07-20T00:40:26;99150.94;;;19.11;93.19
76132;BME280;64877;50.994;13.650;2023-07-20T00:42:52;99156.66;;;18.87;97.07
76132;BME280;64877;50.994;13.650;2023-07-20T00:45:17;99159.13;;;18.96;97.40
76132;BME280;64877;50.994;13.650;2023-07-20T00:47:43;99160.59;;;18.84;99.11
76132;BME280;64877;50.994;13.650;2023-07-20T00:50:09;99160.84;;;18.74;99.76
76132;BME280;64877;50.994;13.650;2023-07-20T00:52:37;99150.69;;;18.83;99.51
76132;BME280;64877;50.994;13.650;2023-07-20T00:55:05;99161.56;;;18.91;98.30
76132;BME280;64877;50.994;13.650;2023-07-20T00:57:31;99156.56;;;18.80;99.62
76132;BME280;64877;50.994;13.650;2023-07-20T00:59:57;99161.59;;;18.68;100.00
76132;BME280;64877;50.994;13.650;2023-07-20T01:02:22;99157.09;;;18.75;100.00
76132;BME280;64877;50.994;13.650;2023-07-20T01:04:48;99162.69;;;18.82;100.00
76132;BME280;64877;50.994;13.650;2023-07-20T01:07:37;99153.63;;;18.81;100.00
76132;BME280;64877;50.994;13.650;2023-07-20T01:10:21;99157.44;;;18.72;100.00
76132;BME280;64877;50.994;13.650;2023-07-20T01:12:53;99153.72;;;18.88;100.00
76132;BME280;64877;50.994;13.650;2023-07-20T01:15:20;99153.22;;;18.84;100.00
76132;BME280;64877;50.994;13.650;2023-07-20T01:17:45;99153.72;;;18.88;100.00
76132;BME280;64877;50.994;13.650;2023-07-20T01:20:14;99158.16;;;18.89;99.61
76132;BME280;64877;50.994;13.650;2023-07-20T01:28:37;99163.34;;;18.61;100.00
76132;BME280;64877;50.994;13.650;2023-07-20T01:31:24;99155.78;;;18.63;100.00
76132;BME280;64877;50.994;13.650;2023-07-20T01:33:52;99155.06;;;18.69;100.00
76132;BME280;64877;50.994;13.650;2023-07-20T01:36:19;99162.09;;;18.64;100.00
76132;BME280;64877;50.994;13.650;2023-07-20T01:38:47;99156.16;;;18.60;100.00
76132;BME280;64877;50.994;13.650;2023-07-20T01:41:13;99156.22;;;18.52;100.00
76132;BME280;64877;50.994;13.650;2023-07-20T01:43:40;99157.00;;;18.38;100.00
76132;BME280;64877;50.994;13.650;2023-07-20T01:46:05;99161.50;;;18.30;100.00
76132;BME280;64877;50.994;13.650;2023-07-20T01:48:31;99173.09;;;18.32;100.00
76132;BME280;64877;50.994;13.650;2023-07-20T01:50:56;99172.75;;;18.36;100.00
76132;BME280;64877;50.994;13.650;2023-07-20T01:53:22;99170.78;;;18.21;100.00
76132;BME280;64877;50.994;13.650;2023-07-20T01:55:47;99170.28;;;18.18;100.00
76132;BME280;64877;50.994;13.650;2023-07-20T01:58:13;99171.56;;;18.07;100.00
76132;BME280;64877;50.994;13.650;2023-07-20T02:00:38;99164.59;;;17.96;100.00
76132;BME280;64877;50.994;13.650;2023-07-20T02:03:04;99161.59;;;17.83;100.00
76132;BME280;64877;50.994;13.650;2023-07-20T02:05:29;99164.66;;;17.80;100.00
76132;BME280;64877;50.994;13.650;2023-07-20T02:07:55;99162.31;;;17.77;100.00
76132;BME280;64877;50.994;13.650;2023-07-20T02:10:20;99174.09;;;17.77;100.00
76132;BME280;64877;50.994;13.650;2023-07-20T02:12:46;99167.41;;;17.80;100.00
76132;BME280;64877;50.994;13.650;2023-07-20T02:15:12;99165.84;;;17.86;100.00
76132;BME280;64877;50.994;13.650;2023-07-20T02:17:39;99174.06;;;17.69;100.00
76132;BME280;64877;50.994;13.650;2023-07-20T02:20:07;99169.97;;;17.81;100.00
76132;BME280;64877;50.994;13.650;2023-07-20T02:22:34;99168.91;;;17.91;100.00
76132;BME280;64877;50.994;13.650;2023-07-20T02:24:59;99165.47;;;17.89;100.00
76132;BME280;64877;50.994;13.650;2023-07-20T02:27:25;99170.09;;;17.88;100.00
76132;BME280;64877;50.994;13.650;2023-07-20T02:29:50;99169.63;;;17.68;100.00
76132;BME280;64877;50.994;13.650;2023-07-20T02:32:15;99171.06;;;17.56;100.00
76132;BME280;64877;50.994;13.650;2023-07-20T02:34:41;99167.69;;;17.38;100.00
76132;BME280;64877;50.994;13.650;2023-07-20T02:37:06;99168.75;;;17.28;100.00
76132;BME280;64877;50.994;13.650;2023-07-20T02:39:31;99170.16;;;17.16;100.00
76132;BME280;64877;50.994;13.650;2023-07-20T02:41:57;99175.94;;;17.13;100.00
76132;BME280;64877;50.994;13.650;2023-07-20T02:44:22;99180.69;;;17.19;100.00
76132;BME280;64877;50.994;13.650;2023-07-20T02:46:48;99177.97;;;17.19;100.00
76132;BME280;64877;50.994;13.650;2023-07-20T02:49:15;99188.72;;;17.21;100.00
76132;BME280;64877;50.994;13.650;2023-07-20T02:51:41;99190.91;;;17.25;100.00
76132;BME280;64877;50.994;13.650;2023-07-20T02:54:06;99196.75;;;17.22;100.00
76132;BME280;64877;50.994;13.650;2023-07-20T02:56:31;99198.28;;;17.17;100.00
76132;BME280;64877;50.994;13.650;2023-07-20T02:58:57;99202.03;;;17.16;100.00
76132;BME280;64877;50.994;13.650;2023-07-20T03:01:22;99196.25;;;17.11;100.00
76132;BME280;64877;50.994;13.650;2023-07-20T03:03:48;99195.38;;;17.10;100.00
76132;BME280;64877;50.994;13.650;2023-07-20T03:06:14;99208.53;;;17.07;100.00
76132;BME280;64877;50.994;13.650;2023-07-20T03:08:43;99200.34;;;17.07;100.00
76132;BME280;64877;50.994;13.650;2023-07-20T03:11:15;99198.78;;;17.04;100.00
76132;BME280;64877;50.994;13.650;2023-07-20T03:13:41;99202.22;;;17.06;100.00
76132;BME280;64877;50.994;13.650;2023-07-20T03:16:08;99206.66;;;17.07;100.00
76132;BME280;64877;50.994;13.650;2023-07-20T03:18:37;99207.31;;;17.09;100.00
76132;BME280;64877;50.994;13.650;2023-07-20T03:21:03;99204.94;;;17.14;100.00
76132;BME280;64877;50.994;13.650;2023-07-20T03:23:28;99204.94;;;17.14;100.00
76132;BME280;64877;50.994;13.650;2023-07-20T03:25:54;99208.84;;;17.03;100.00
76132;BME280;64877;50.994;13.650;2023-07-20T03:28:20;99210.91;;;17.10;100.00
76132;BME280;64877;50.994;13.650;2023-07-20T03:30:45;99209.53;;;17.05;100.00
76132;BME280;64877;50.994;13.650;2023-07-20T03:33:11;99210.06;;;17.01;100.00
76132;BME280;64877;50.994;13.650;2023-07-20T03:35:37;99212.97;;;17.08;100.00
76132;BME280;64877;50.994;13.650;2023-07-20T03:38:02;99213.47;;;17.11;100.00
76132;BME280;64877;50.994;13.650;2023-07-20T03:40:28;99215.00;;;17.22;100.00
76132;BME280;64877;50.994;13.650;2023-07-20T03:42:53;99213.78;;;17.24;100.00
76132;BME280;64877;50.994;13.650;2023-07-20T03:45:18;99210.72;;;17.27;100.00
76132;BME280;64877;50.994;13.650;2023-07-20T03:47:44;99211.19;;;17.39;100.00
76132;BME280;64877;50.994;13.650;2023-07-20T03:50:10;99210.34;;;17.47;100.00
76132;BME280;64877;50.994;13.650;2023-07-20T03:52:36;99208.94;;;17.59;100.00
76132;BME280;64877;50.994;13.650;2023-07-20T03:55:01;99221.41;;;17.62;100.00
76132;BME280;64877;50.994;13.650;2023-07-20T03:57:26;99221.19;;;17.71;100.00
76132;BME280;64877;50.994;13.650;2023-07-20T03:59:52;99216.03;;;17.85;100.00
76132;BME280;64877;50.994;13.650;2023-07-20T04:02:18;99217.72;;;17.94;100.00
76132;BME280;64877;50.994;13.650;2023-07-20T04:04:43;99218.41;;;17.96;100.00
76132;BME280;64877;50.994;13.650;2023-07-20T04:07:09;99223.59;;;18.14;100.00
76132;BME280;64877;50.994;13.650;2023-07-20T04:09:34;99228.75;;;18.08;100.00
76132;BME280;64877;50.994;13.650;2023-07-20T04:12:00;99214.88;;;18.18;100.00
76132;BME280;64877;50.994;13.650;2023-07-20T04:14:25;99218.75;;;18.24;100.00
76132;BME280;64877;50.994;13.650;2023-07-20T04:16:51;99219.63;;;18.24;100.00
76132;BME280;64877;50.994;13.650;2023-07-20T04:19:17;99215.16;;;18.31;100.00
76132;BME280;64877;50.994;13.650;2023-07-20T04:21:43;99216.28;;;18.45;100.00
76132;BME280;64877;50.994;13.650;2023-07-20T04:24:09;99209.91;;;18.45;100.00
76132;BME280;64877;50.994;13.650;2023-07-20T04:26:34;99223.44;;;18.46;100.00
76132;BME280;64877;50.994;13.650;2023-07-20T04:29:00;99219.78;;;18.54;100.00
76132;BME280;64877;50.994;13.650;2023-07-20T04:31:26;99222.75;;;18.75;99.91
76132;BME280;64877;50.994;13.650;2023-07-20T04:33:51;99219.03;;;18.91;97.93
76132;BME280;64877;50.994;13.650;2023-07-20T04:36:17;99220.69;;;18.77;99.17
76132;BME280;64877;50.994;13.650;2023-07-20T04:38:45;99222.13;;;18.88;98.41
76132;BME280;64877;50.994;13.650;2023-07-20T04:41:11;99217.16;;;18.92;97.81
76132;BME280;64877;50.994;13.650;2023-07-20T04:43:41;99222.28;;;18.95;98.00
76132;BME280;64877;50.994;13.650;2023-07-20T04:46:07;99218.19;;;18.91;98.31
76132;BME280;64877;50.994;13.650;2023-07-20T04:48:33;99220.97;;;19.05;97.47
76132;BME280;64877;50.994;13.650;2023-07-20T04:50:58;99230.31;;;19.49;94.40
76132;BME280;64877;50.994;13.650;2023-07-20T04:53:24;99222.69;;;19.88;91.22
76132;BME280;64877;50.994;13.650;2023-07-20T04:55:50;99225.91;;;20.07;89.39
76132;BME280;64877;50.994;13.650;2023-07-20T04:58:17;99224.94;;;20.29;87.66
76132;BME280;64877;50.994;13.650;2023-07-20T05:00:43;99227.22;;;20.62;86.66
76132;BME280;64877;50.994;13.650;2023-07-20T05:03:08;99232.09;;;20.45;84.92
76132;BME280;64877;50.994;13.650;2023-07-20T05:05:34;99233.50;;;20.56;84.78
76132;BME280;64877;50.994;13.650;2023-07-20T05:07:59;99233.03;;;20.88;84.22
76132;BME280;64877;50.994;13.650;2023-07-20T05:10:25;99225.69;;;20.96;82.31
76132;BME280;64877;50.994;13.650;2023-07-20T05:12:50;99227.38;;;20.97;81.56
76132;BME280;64877;50.994;13.650;2023-07-20T05:15:15;99227.31;;;20.69;82.80
76132;BME280;64877;50.994;13.650;2023-07-20T05:17:41;99225.28;;;20.77;82.22
76132;BME280;64877;50.994;13.650;2023-07-20T05:20:07;99224.31;;;20.85;80.89
76132;BME280;64877;50.994;13.650;2023-07-20T05:22:35;99228.66;;;21.22;80.53
76132;BME280;64877;50.994;13.650;2023-07-20T05:25:00;99234.09;;;21.37;79.91
76132;BME280;64877;50.994;13.650;2023-07-20T05:27:26;99227.41;;;21.74;77.52
76132;BME280;64877;50.994;13.650;2023-07-20T05:29:51;99222.41;;;21.91;75.95
76132;BME280;64877;50.994;13.650;2023-07-20T05:32:16;99220.50;;;21.91;75.90
76132;BME280;64877;50.994;13.650;2023-07-20T05:34:42;99226.13;;;21.77;75.58
76132;BME280;64877;50.994;13.650;2023-07-20T05:37:07;99224.06;;;21.51;76.31
76132;BME280;64877;50.994;13.650;2023-07-20T05:39:33;99225.66;;;21.66;75.62
76132;BME280;64877;50.994;13.650;2023-07-20T05:41:58;99229.28;;;22.08;72.38
76132;BME280;64877;50.994;13.650;2023-07-20T05:44:24;99225.53;;;22.16;72.15
76132;BME280;64877;50.994;13.650;2023-07-20T05:46:49;99235.47;;;22.17;71.54
76132;BME280;64877;50.994;13.650;2023-07-20T05:49:14;99235.63;;;22.43;69.54
76132;BME280;64877;50.994;13.650;2023-07-20T05:51:40;99237.47;;;22.36;69.46
76132;BME280;64877;50.994;13.650;2023-07-20T05:54:05;99245.25;;;21.91;71.62
76132;BME280;64877;50.994;13.650;2023-07-20T05:56:31;99244.25;;;21.64;73.68
76132;BME280;64877;50.994;13.650;2023-07-20T05:58:57;99246.28;;;21.84;72.66
76132;BME280;64877;50.994;13.650;2023-07-20T06:01:22;99249.91;;;21.91;71.51
76132;BME280;64877;50.994;13.650;2023-07-20T06:03:47;99250.50;;;21.86;71.87
76132;BME280;64877;50.994;13.650;2023-07-20T06:06:13;99244.75;;;21.75;72.19
76132;BME280;64877;50.994;13.650;2023-07-20T06:08:38;99246.94;;;21.92;70.70
76132;BME280;64877;50.994;13.650;2023-07-20T06:11:04;99249.53;;;22.01;70.20
76132;BME280;64877;50.994;13.650;2023-07-20T06:13:29;99250.13;;;21.89;70.71
76132;BME280;64877;50.994;13.650;2023-07-20T06:15:55;99243.44;;;22.05;70.24
76132;BME280;64877;50.994;13.650;2023-07-20T06:18:22;99248.31;;;22.03;70.32
76132;BME280;64877;50.994;13.650;2023-07-20T06:20:49;99257.16;;;21.99;70.09
76132;BME280;64877;50.994;13.650;2023-07-20T06:23:15;99264.69;;;21.83;70.53
76132;BME280;64877;50.994;13.650;2023-07-20T06:25:42;99266.84;;;21.60;73.11
76132;BME280;64877;50.994;13.650;2023-07-20T06:28:08;99268.97;;;21.36;75.02
76132;BME280;64877;50.994;13.650;2023-07-20T06:30:35;99271.25;;;20.69;81.91
76132;BME280;64877;50.994;13.650;2023-07-20T06:33:00;99279.31;;;20.26;86.03
76132;BME280;64877;50.994;13.650;2023-07-20T06:35:26;99280.66;;;20.15;85.98
76132;BME280;64877;50.994;13.650;2023-07-20T06:37:52;99284.81;;;19.81;89.88
76132;BME280;64877;50.994;13.650;2023-07-20T06:40:17;99283.31;;;19.56;93.26
76132;BME280;64877;50.994;13.650;2023-07-20T06:42:43;99282.72;;;19.46;94.35
76132;BME280;64877;50.994;13.650;2023-07-20T06:45:09;99281.19;;;19.66;92.13
76132;BME280;64877;50.994;13.650;2023-07-20T06:47:34;99282.19;;;19.50;93.48
76132;BME280;64877;50.994;13.650;2023-07-20T06:50:00;99275.63;;;19.36;97.33
76132;BME280;64877;50.994;13.650;2023-07-20T06:52:25;99278.31;;;19.22;98.90
76132;BME280;64877;50.994;13.650;2023-07-20T06:54:50;99273.84;;;19.06;100.00
76132;BME280;64877;50.994;13.650;2023-07-20T06:57:16;99282.31;;;19.34;98.37
76132;BME280;64877;50.994;13.650;2023-07-20T06:59:42;99283.84;;;19.36;98.58
76132;BME280;64877;50.994;13.650;2023-07-20T07:02:07;99286.19;;;19.25;100.00
76132;BME280;64877;50.994;13.650;2023-07-20T07:04:33;99288.03;;;19.47;99.42
76132;BME280;64877;50.994;13.650;2023-07-20T07:06:59;99291.13;;;19.67;97.57
76132;BME280;64877;50.994;13.650;2023-07-20T07:09:25;99290.47;;;19.65;98.56
76132;BME280;64877;50.994;13.650;2023-07-20T07:11:50;99296.63;;;19.82;93.93
76132;BME280;64877;50.994;13.650;2023-07-20T07:14:16;99291.50;;;20.08;93.26
76132;BME280;64877;50.994;13.650;2023-07-20T07:16:41;99295.00;;;20.17;92.98
76132;BME280;64877;50.994;13.650;2023-07-20T07:19:07;99296.34;;;20.21;94.89
76132;BME280;64877;50.994;13.650;2023-07-20T07:21:32;99301.25;;;20.40;91.24
76132;BME280;64877;50.994;13.650;2023-07-20T07:23:58;99303.03;;;20.63;88.65
76132;BME280;64877;50.994;13.650;2023-07-20T07:26:25;99296.97;;;20.38;92.00
76132;BME280;64877;50.994;13.650;2023-07-20T07:28:50;99300.13;;;20.35;92.75
76132;BME280;64877;50.994;13.650;2023-07-20T07:31:16;99295.00;;;20.47;92.18
76132;BME280;64877;50.994;13.650;2023-07-20T07:33:41;99300.66;;;20.45;87.67
76132;BME280;64877;50.994;13.650;2023-07-20T07:36:07;99304.06;;;20.62;85.77
76132;BME280;64877;50.994;13.650;2023-07-20T07:38:32;99294.50;;;20.58;86.95
76132;BME280;64877;50.994;13.650;2023-07-20T07:40:58;99302.09;;;20.56;87.89
76132;BME280;64877;50.994;13.650;2023-07-20T07:43:23;99293.03;;;20.55;88.29
76132;BME280;64877;50.994;13.650;2023-07-20T07:45:49;99295.97;;;21.54;81.61
76132;BME280;64877;50.994;13.650;2023-07-20T07:48:15;99295.16;;;21.60;79.69
76132;BME280;64877;50.994;13.650;2023-07-20T07:50:40;99295.63;;;21.42;77.16
76132;BME280;64877;50.994;13.650;2023-07-20T07:53:06;99292.50;;;22.30;73.49
76132;BME280;64877;50.994;13.650;2023-07-20T07:55:32;99296.94;;;22.85;70.86
76132;BME280;64877;50.994;13.650;2023-07-20T07:57:57;99292.72;;;22.35;72.97
76132;BME280;64877;50.994;13.650;2023-07-20T08:00:23;99295.66;;;21.99;73.94
76132;BME280;64877;50.994;13.650;2023-07-20T08:02:50;99300.56;;;21.75;72.68
76132;BME280;64877;50.994;13.650;2023-07-20T08:05:15;99303.72;;;21.72;73.35
76132;BME280;64877;50.994;13.650;2023-07-20T08:07:41;99301.03;;;21.79;73.86
76132;BME280;64877;50.994;13.650;2023-07-20T08:10:07;99300.16;;;22.06;71.81
76132;BME280;64877;50.994;13.650;2023-07-20T08:12:33;99295.41;;;23.57;65.13
76132;BME280;64877;50.994;13.650;2023-07-20T08:14:59;99302.63;;;23.78;60.90
76132;BME280;64877;50.994;13.650;2023-07-20T08:17:24;99300.03;;;23.24;66.42
76132;BME280;64877;50.994;13.650;2023-07-20T08:19:50;99296.19;;;23.11;66.08
76132;BME280;64877;50.994;13.650;2023-07-20T08:22:15;99294.44;;;22.90;66.34
76132;BME280;64877;50.994;13.650;2023-07-20T08:24:41;99300.84;;;22.98;64.71
76132;BME280;64877;50.994;13.650;2023-07-20T08:27:08;99292.66;;;22.76;66.76
76132;BME280;64877;50.994;13.650;2023-07-20T08:29:34;99301.16;;;23.82;62.29
76132;BME280;64877;50.994;13.650;2023-07-20T08:32:00;99294.41;;;24.49;59.33
76132;BME280;64877;50.994;13.650;2023-07-20T08:34:25;99296.22;;;25.45;56.45
76132;BME280;64877;50.994;13.650;2023-07-20T08:36:51;99290.06;;;25.75;54.17
76132;BME280;64877;50.994;13.650;2023-07-20T08:39:16;99297.81;;;25.35;55.52
76132;BME280;64877;50.994;13.650;2023-07-20T08:41:46;99303.53;;;25.01;53.81
76132;BME280;64877;50.994;13.650;2023-07-20T08:44:11;99297.56;;;25.05;54.55
76132;BME280;64877;50.994;13.650;2023-07-20T08:46:38;99294.78;;;25.05;55.45
76132;BME280;64877;50.994;13.650;2023-07-20T08:49:06;99301.34;;;25.17;53.25
76132;BME280;64877;50.994;13.650;2023-07-20T08:51:32;99301.00;;;25.07;54.39
76132;BME280;64877;50.994;13.650;2023-07-20T08:53:58;99299.06;;;25.39;51.12
76132;BME280;64877;50.994;13.650;2023-07-20T08:56:25;99300.09;;;25.13;51.57
76132;BME280;64877;50.994;13.650;2023-07-20T08:58:53;99301.91;;;24.87;52.36
76132;BME280;64877;50.994;13.650;2023-07-20T09:01:19;99301.22;;;24.98;52.73
76132;BME280;64877;50.994;13.650;2023-07-20T09:03:45;99297.44;;;24.86;51.93
76132;BME280;64877;50.994;13.650;2023-07-20T09:06:12;99299.72;;;24.58;52.71
76132;BME280;64877;50.994;13.650;2023-07-20T09:08:40;99299.75;;;24.31;54.18
76132;BME280;64877;50.994;13.650;2023-07-20T09:11:06;99300.84;;;24.23;54.81
76132;BME280;64877;50.994;13.650;2023-07-20T09:13:33;99303.47;;;23.85;55.59
76132;BME280;64877;50.994;13.650;2023-07-20T09:15:59;99299.63;;;23.46;58.25
76132;BME280;64877;50.994;13.650;2023-07-20T09:18:26;99296.66;;;23.28;57.73
76132;BME280;64877;50.994;13.650;2023-07-20T09:20:52;99300.22;;;23.15;59.14
76132;BME280;64877;50.994;13.650;2023-07-20T09:23:17;99298.63;;;22.86;61.32
76132;BME280;64877;50.994;13.650;2023-07-20T09:25:43;99299.94;;;22.90;61.26
76132;BME280;64877;50.994;13.650;2023-07-20T09:28:08;99297.88;;;22.92;60.08
76132;BME280;64877;50.994;13.650;2023-07-20T09:30:33;99306.06;;;22.86;60.76
76132;BME280;64877;50.994;13.650;2023-07-20T09:32:59;99301.56;;;22.71;62.06
76132;BME280;64877;50.994;13.650;2023-07-20T09:35:25;99296.50;;;22.75;61.80
76132;BME280;64877;50.994;13.650;2023-07-20T09:37:53;99292.16;;;23.27;61.72
76132;BME280;64877;50.994;13.650;2023-07-20T09:40:19;99289.41;;;23.14;60.92
76132;BME280;64877;50.994;13.650;2023-07-20T09:42:45;99294.53;;;23.50;59.90
76132;BME280;64877;50.994;13.650;2023-07-20T09:45:11;99292.84;;;23.76;56.51
76132;BME280;64877;50.994;13.650;2023-07-20T09:47:37;99299.19;;;23.50;55.92
76132;BME280;64877;50.994;13.650;2023-07-20T09:50:04;99304.28;;;23.39;57.70
76132;BME280;64877;50.994;13.650;2023-07-20T09:52:30;99301.31;;;23.34;57.57
76132;BME280;64877;50.994;13.650;2023-07-20T09:54:56;99308.53;;;23.48;56.28
76132;BME280;64877;50.994;13.650;2023-07-20T09:57:23;99306.81;;;23.34;56.35
76132;BME280;64877;50.994;13.650;2023-07-20T09:59:48;99309.16;;;23.24;56.87
76132;BME280;64877;50.994;13.650;2023-07-20T10:02:21;99301.72;;;23.31;55.63
76132;BME280;64877;50.994;13.650;2023-07-20T10:04:53;99304.72;;;23.43;54.75
76132;BME280;64877;50.994;13.650;2023-07-20T10:07:19;99302.59;;;23.52;55.23
76132;BME280;64877;50.994;13.650;2023-07-20T10:09:48;99294.97;;;23.67;54.14
76132;BME280;64877;50.994;13.650;2023-07-20T10:12:17;99294.78;;;23.75;53.23
76132;BME280;64877;50.994;13.650;2023-07-20T10:14:52;99301.78;;;23.71;52.77
76132;BME280;64877;50.994;13.650;2023-07-20T10:17:21;99303.66;;;23.90;52.50
76132;BME280;64877;50.994;13.650;2023-07-20T10:19:47;99295.34;;;24.10;51.56
76132;BME280;64877;50.994;13.650;2023-07-20T10:22:19;99301.75;;;24.04;51.09
76132;BME280;64877;50.994;13.650;2023-07-20T10:24:46;99298.16;;;23.90;50.97
76132;BME280;64877;50.994;13.650;2023-07-20T10:27:13;99297.97;;;23.92;51.36
76132;BME280;64877;50.994;13.650;2023-07-20T10:29:40;99289.69;;;23.72;51.24
76132;BME280;64877;50.994;13.650;2023-07-20T10:32:08;99288.38;;;23.61;51.92
76132;BME280;64877;50.994;13.650;2023-07-20T10:34:34;99286.47;;;23.48;53.06
76132;BME280;64877;50.994;13.650;2023-07-20T10:36:59;99282.66;;;23.30;54.06
76132;BME280;64877;50.994;13.650;2023-07-20T10:39:30;99289.44;;;23.34;54.45
76132;BME280;64877;50.994;13.650;2023-07-20T10:42:10;99280.56;;;23.65;54.12
76132;BME280;64877;50.994;13.650;2023-07-20T10:44:39;99286.25;;;23.57;57.28
76132;BME280;64877;50.994;13.650;2023-07-20T10:47:09;99270.81;;;23.69;57.62
76132;BME280;64877;50.994;13.650;2023-07-20T10:49:58;99286.91;;;23.52;58.72
76132;BME280;64877;50.994;13.650;2023-07-20T10:52:25;99277.53;;;23.07;60.36
76132;BME280;64877;50.994;13.650;2023-07-20T10:54:50;99274.09;;;22.91;60.52
76132;BME280;64877;50.994;13.650;2023-07-20T10:59:49;99274.53;;;22.95;58.24
76132;BME280;64877;50.994;13.650;2023-07-20T11:02:18;99277.03;;;22.83;59.27
76132;BME280;64877;50.994;13.650;2023-07-20T11:04:45;99295.81;;;22.66;63.02
76132;BME280;64877;50.994;13.650;2023-07-20T11:07:15;99304.31;;;22.24;64.91
76132;BME280;64877;50.994;13.650;2023-07-20T11:09:42;99297.50;;;21.91;66.37
76132;BME280;64877;50.994;13.650;2023-07-20T11:12:17;99306.47;;;22.00;66.48
76132;BME280;64877;50.994;13.650;2023-07-20T11:14:57;99299.75;;;21.81;67.61
76132;BME280;64877;50.994;13.650;2023-07-20T11:17:29;99300.06;;;21.65;72.16
76132;BME280;64877;50.994;13.650;2023-07-20T11:19:56;99296.94;;;21.47;73.88
76132;BME280;64877;50.994;13.650;2023-07-20T11:22:22;99286.81;;;21.26;75.24
76132;BME280;64877;50.994;13.650;2023-07-20T11:24:47;99293.94;;;21.20;75.25
76132;BME280;64877;50.994;13.650;2023-07-20T11:27:14;99289.94;;;21.23;77.00
76132;BME280;64877;50.994;13.650;2023-07-20T11:29:40;99293.56;;;21.45;76.97
76132;BME280;64877;50.994;13.650;2023-07-20T11:32:05;99289.88;;;21.59;76.27
76132;BME280;64877;50.994;13.650;2023-07-20T11:34:32;99284.78;;;21.84;73.93
76132;BME280;64877;50.994;13.650;2023-07-20T11:36:58;99286.47;;;22.13;74.39
76132;BME280;64877;50.994;13.650;2023-07-20T11:39:24;99295.16;;;22.16;74.43
76132;BME280;64877;50.994;13.650;2023-07-20T11:41:52;99293.00;;;22.12;72.98
76132;BME280;64877;50.994;13.650;2023-07-20T11:44:19;99288.94;;;22.42;74.63
76132;BME280;64877;50.994;13.650;2023-07-20T11:46:46;99292.31;;;22.38;71.70
76132;BME280;64877;50.994;13.650;2023-07-20T11:49:12;99291.13;;;22.54;71.68
76132;BME280;64877;50.994;13.650;2023-07-20T11:51:38;99290.28;;;22.60;71.17
76132;BME280;64877;50.994;13.650;2023-07-20T11:54:05;99284.50;;;22.41;71.28
76132;BME280;64877;50.994;13.650;2023-07-20T11:56:31;99290.59;;;22.30;70.28
76132;BME280;64877;50.994;13.650;2023-07-20T11:59:00;99280.22;;;22.32;69.63
76132;BME280;64877;50.994;13.650;2023-07-20T12:01:28;99285.00;;;22.17;69.62
76132;BME280;64877;50.994;13.650;2023-07-20T12:03:59;99286.91;;;22.16;69.93
76132;BME280;64877;50.994;13.650;2023-07-20T12:06:24;99295.06;;;22.03;71.29
76132;BME280;64877;50.994;13.650;2023-07-20T12:08:50;99298.09;;;21.87;70.92
76132;BME280;64877;50.994;13.650;2023-07-20T12:11:31;99288.63;;;21.89;70.57
76132;BME280;64877;50.994;13.650;2023-07-20T12:13:57;99290.22;;;21.77;71.39
76132;BME280;64877;50.994;13.650;2023-07-20T12:16:27;99297.13;;;21.66;73.19
76132;BME280;64877;50.994;13.650;2023-07-20T12:19:06;99310.69;;;21.25;75.70
76132;BME280;64877;50.994;13.650;2023-07-20T12:21:34;99321.22;;;21.43;75.10
76132;BME280;64877;50.994;13.650;2023-07-20T12:24:02;99314.06;;;20.84;80.02
76132;BME280;64877;50.994;13.650;2023-07-20T12:26:29;99313.44;;;20.38;85.25
76132;BME280;64877;50.994;13.650;2023-07-20T12:28:55;99319.41;;;20.42;84.76
76132;BME280;64877;50.994;13.650;2023-07-20T12:31:20;99337.69;;;20.64;85.21
76132;BME280;64877;50.994;13.650;2023-07-20T12:33:48;99342.25;;;20.78;86.17
76132;BME280;64877;50.994;13.650;2023-07-20T12:36:13;99335.00;;;20.71;85.29
76132;BME280;64877;50.994;13.650;2023-07-20T12:38:38;99348.25;;;20.67;86.24
76132;BME280;64877;50.994;13.650;2023-07-20T12:41:04;99345.81;;;20.57;86.98
76132;BME280;64877;50.994;13.650;2023-07-20T12:43:29;99359.69;;;20.26;85.02
76132;BME280;64877;50.994;13.650;2023-07-20T12:45:56;99375.41;;;20.32;86.00
76132;BME280;64877;50.994;13.650;2023-07-20T12:48:21;99379.88;;;20.48;87.22
76132;BME280;64877;50.994;13.650;2023-07-20T12:50:47;99384.41;;;20.56;85.94
76132;BME280;64877;50.994;13.650;2023-07-20T12:53:14;99389.81;;;20.64;83.72